createdAt,value
2016-12-27T00:01:10.092Z,4.43
2016-12-27T00:12:30.117Z,4.45
2016-12-27T00:23:48.752Z,4.26
2016-12-27T00:35:08.803Z,4.1
2016-12-27T00:46:27.415Z,4.1
2016-12-27T00:57:46.008Z,4.09
2016-12-27T01:09:05.518Z,4.17
2016-12-27T01:20:25.563Z,4.08
2016-12-27T01:31:44.201Z,4.09
2016-12-27T01:43:02.991Z,4.28
2016-12-27T01:54:21.438Z,4.56
2016-12-27T02:06:12.009Z,4.56
2016-12-27T02:17:30.525Z,4.59
2016-12-27T02:28:49.122Z,4.59
2016-12-27T02:40:07.730Z,4.71
2016-12-27T02:51:26.287Z,4.74
2016-12-27T03:02:45.929Z,4.78
2016-12-27T03:14:04.527Z,4.72
2016-12-27T03:25:24.029Z,4.61
2016-12-27T03:36:42.597Z,4.48
2016-12-27T03:48:02.684Z,4.34
2016-12-27T03:59:21.292Z,4.31
2016-12-27T04:10:39.849Z,4.09
2016-12-27T04:21:58.608Z,4.16
2016-12-27T04:33:16.032Z,3.92
2016-12-27T04:44:34.596Z,3.76
2016-12-27T04:55:53.338Z,3.78
2016-12-27T05:07:11.781Z,3.84
2016-12-27T05:18:30.361Z,3.87
2016-12-27T05:29:48.918Z,3.81
2016-12-27T05:41:09.222Z,3.84
2016-12-27T05:52:29.808Z,3.78
2016-12-27T06:03:48.327Z,3.81
2016-12-27T06:15:06.845Z,3.87
2016-12-27T06:26:25.424Z,3.72
2016-12-27T06:37:44.022Z,3.67
2016-12-27T06:49:02.916Z,3.7
2016-12-27T07:00:21.476Z,3.8
2016-12-27T07:12:13.243Z,3.7
2016-12-27T07:23:32.699Z,3.67
2016-12-27T07:34:51.747Z,3.72
2016-12-27T07:46:10.064Z,3.67
2016-12-27T07:57:28.687Z,3.78
2016-12-27T08:08:47.284Z,3.76
2016-12-27T08:20:06.950Z,3.96
2016-12-27T08:31:25.483Z,3.91
2016-12-27T08:42:44.081Z,4
2016-12-27T08:54:04.062Z,4.09
2016-12-27T09:05:22.884Z,4.34
2016-12-27T09:16:42.645Z,4.43
2016-12-27T09:28:02.053Z,4.79
2016-12-27T09:39:21.807Z,5.18
2016-12-27T09:50:40.397Z,5.34
2016-12-27T10:01:59.896Z,5.55
2016-12-27T10:13:18.739Z,5.72
2016-12-27T10:24:38.815Z,5.87
2016-12-27T10:35:57.331Z,6.08
2016-12-27T10:47:14.555Z,6.3
2016-12-27T10:58:33.164Z,6.42
2016-12-27T11:09:53.162Z,6.56
2016-12-27T11:21:13.735Z,6.64
2016-12-27T11:32:38.268Z,6.83
2016-12-27T11:43:59.284Z,7
2016-12-27T11:55:18.616Z,7.34
2016-12-27T12:06:37.338Z,7.21
2016-12-27T12:17:57.833Z,7.44
2016-12-27T12:29:18.180Z,7.77
2016-12-27T12:40:37.417Z,7.73
2016-12-27T12:51:57.364Z,7.87
2016-12-27T13:03:13.909Z,8.02
2016-12-27T13:14:32.609Z,8.02
2016-12-27T13:25:50.742Z,8.09
2016-12-27T13:37:11.086Z,8.09
2016-12-27T13:48:28.705Z,8.1
2016-12-27T13:59:49.578Z,8.14
2016-12-27T14:11:43.398Z,8.19
2016-12-27T14:23:03.249Z,8.05
2016-12-27T14:34:27.666Z,7.86
2016-12-27T14:46:22.556Z,7.69
2016-12-27T14:58:51.659Z,7.36
2016-12-27T15:10:16.457Z,7.24
2016-12-27T15:21:40.143Z,6.99
2016-12-27T15:34:07.175Z,6.78
2016-12-27T15:46:33.366Z,6.64
2016-12-27T16:00:05.424Z,6.61
2016-12-27T16:11:27.511Z,6.52
2016-12-27T16:22:45.896Z,6.38
2016-12-27T16:34:06.068Z,6.09
2016-12-27T16:45:24.909Z,5.97
2016-12-27T16:56:45.065Z,5.97
2016-12-27T17:08:05.087Z,5.7
2016-12-27T17:19:23.651Z,5.55
2016-12-27T17:30:42.260Z,5.5
2016-12-27T17:42:00.791Z,5.41
2016-12-27T17:53:18.379Z,5.55
2016-12-27T18:04:36.948Z,5.54
2016-12-27T18:15:55.535Z,5.62
2016-12-27T18:27:14.260Z,5.58
2016-12-27T18:38:32.741Z,5.39
2016-12-27T18:49:52.800Z,5.36
2016-12-27T19:01:11.347Z,5.4
2016-12-27T19:12:29.465Z,5.15
2016-12-27T19:23:47.053Z,4.96
2016-12-27T19:35:04.120Z,4.97
2016-12-27T19:46:21.738Z,4.89
2016-12-27T19:57:40.324Z,4.83
2016-12-27T20:08:57.430Z,4.93
2016-12-27T20:17:27.125Z,4.89
2016-12-27T20:28:45.762Z,4.77
2016-12-27T20:40:04.295Z,4.69
2016-12-27T20:51:23.189Z,4.59
2016-12-27T21:02:41.769Z,4.54
2016-12-27T21:13:58.846Z,4.45
2016-12-27T21:25:16.408Z,4.41
2016-12-27T21:36:34.013Z,4.17
2016-12-27T21:47:51.060Z,4.23
2016-12-27T21:59:09.632Z,4.2
2016-12-27T22:10:26.713Z,4.13
2016-12-27T22:21:43.801Z,4.27
2016-12-27T22:33:00.892Z,4.09
2016-12-27T22:44:18.486Z,4.1
2016-12-27T22:55:37.167Z,3.94
2016-12-27T23:06:54.425Z,3.98
2016-12-27T23:18:13.023Z,3.82
2016-12-27T23:29:31.573Z,3.85
2016-12-27T23:40:49.144Z,3.81
2016-12-27T23:52:07.721Z,3.76
